createdAt,value
2023-02-02T00:04:36.730Z,2.33
2023-02-02T00:09:39.541Z,2.31
2023-02-02T00:14:42.861Z,2.32
2023-02-02T00:19:46.887Z,2.33
2023-02-02T00:24:58.340Z,2.30
2023-02-02T00:30:01.113Z,2.27
2023-02-02T00:35:03.984Z,2.26
2023-02-02T00:40:08.000Z,2.26
2023-02-02T00:45:18.271Z,2.24
2023-02-02T00:50:21.779Z,2.20
2023-02-02T00:55:26.482Z,2.15
2023-02-02T01:00:29.677Z,2.13
2023-02-02T01:05:34.913Z,2.02
2023-02-02T01:10:37.970Z,1.89
2023-02-02T01:15:40.750Z,1.82
2023-02-02T01:20:43.540Z,1.71
2023-02-02T01:25:53.568Z,1.57
2023-02-02T01:30:57.368Z,1.45
2023-02-02T01:36:07.862Z,1.31
2023-02-02T01:41:19.609Z,1.20
2023-02-02T01:46:26.542Z,1.15
2023-02-02T01:51:58.402Z,1.13
2023-02-02T01:57:06.142Z,1.12
2023-02-02T02:02:09.062Z,1.13
2023-02-02T02:07:12.329Z,1.19
2023-02-02T02:12:16.286Z,1.26
2023-02-02T02:17:33.615Z,1.31
2023-02-02T02:23:13.997Z,1.39
2023-02-02T02:28:28.745Z,1.47
2023-02-02T02:33:40.409Z,1.53
2023-02-02T02:39:16.780Z,1.58
2023-02-02T02:44:21.657Z,1.65
2023-02-02T02:49:24.389Z,1.72
2023-02-02T02:54:39.913Z,1.79
2023-02-02T03:00:12.652Z,1.85
2023-02-02T03:06:10.606Z,1.94
2023-02-02T03:11:15.956Z,2.01
2023-02-02T03:16:18.680Z,2.06
2023-02-02T03:21:22.360Z,2.14
2023-02-02T03:26:28.791Z,2.20
2023-02-02T03:31:32.035Z,2.25
2023-02-02T03:36:34.985Z,2.28
2023-02-02T03:41:37.809Z,2.31
2023-02-02T03:46:40.570Z,2.33
2023-02-02T03:51:44.438Z,2.35
2023-02-02T03:56:47.185Z,2.37
2023-02-02T04:01:50.017Z,2.38
2023-02-02T04:06:53.167Z,2.38
2023-02-02T04:11:55.973Z,2.38
2023-02-02T04:16:58.765Z,2.37
2023-02-02T04:22:01.569Z,2.39
2023-02-02T04:27:04.474Z,2.40
2023-02-02T04:32:07.328Z,2.39
2023-02-02T04:37:11.257Z,2.39
2023-02-02T04:42:14.124Z,2.40
2023-02-02T04:47:16.926Z,2.39
2023-02-02T04:52:19.731Z,2.39
2023-02-02T04:57:23.025Z,2.40
2023-02-02T05:02:25.884Z,2.39
2023-02-02T05:07:28.678Z,2.38
2023-02-02T05:12:31.428Z,2.36
2023-02-02T05:17:34.188Z,2.32
2023-02-02T05:22:36.979Z,2.31
2023-02-02T05:27:42.744Z,2.31
2023-02-02T05:32:45.543Z,2.30
2023-02-02T05:37:48.391Z,2.26
2023-02-02T05:42:51.101Z,2.25
2023-02-02T05:47:55.946Z,2.27
2023-02-02T05:53:00.010Z,2.26
2023-02-02T05:58:02.761Z,2.23
2023-02-02T06:03:05.556Z,2.18
2023-02-02T06:08:08.394Z,2.13
2023-02-02T06:13:11.563Z,2.15
2023-02-02T06:18:14.392Z,2.13
2023-02-02T06:23:17.151Z,2.17
2023-02-02T06:28:20.397Z,2.24
2023-02-02T06:33:23.131Z,2.29
2023-02-02T06:38:25.901Z,2.32
2023-02-02T06:43:29.762Z,2.37
2023-02-02T06:48:32.675Z,2.42
2023-02-02T06:53:35.547Z,2.45
2023-02-02T06:58:38.661Z,2.46
2023-02-02T07:03:42.002Z,2.64
2023-02-02T07:08:45.083Z,2.87
2023-02-02T07:13:50.613Z,3.01
2023-02-02T07:18:53.533Z,3.06
2023-02-02T07:23:56.573Z,3.15
2023-02-02T07:28:59.518Z,3.25
2023-02-02T07:34:02.318Z,3.24
2023-02-02T07:39:07.847Z,3.27
2023-02-02T07:44:17.325Z,3.35
2023-02-02T07:49:20.758Z,3.45
2023-02-02T07:54:23.826Z,3.61
2023-02-02T07:59:26.616Z,3.71
2023-02-02T08:04:29.590Z,3.74
2023-02-02T08:09:33.198Z,3.71
2023-02-02T08:14:36.355Z,3.70
2023-02-02T08:19:39.165Z,3.75
2023-02-02T08:24:43.045Z,3.88
2023-02-02T08:29:46.367Z,3.95
2023-02-02T08:34:52.200Z,4.04
2023-02-02T08:39:55.044Z,4.09
2023-02-02T08:46:00.333Z,4.08
2023-02-02T08:50:09.036Z,4.13
2023-02-02T08:55:11.985Z,4.03
2023-02-02T09:00:16.581Z,3.86
2023-02-02T09:05:26.787Z,3.81
2023-02-02T09:10:34.901Z,3.82
2023-02-02T09:15:38.872Z,3.73
2023-02-02T09:20:43.712Z,3.61
2023-02-02T09:25:47.524Z,3.58
2023-02-02T09:30:50.587Z,3.65
2023-02-02T09:35:55.209Z,3.74
2023-02-02T09:40:58.303Z,3.87
2023-02-02T09:46:18.209Z,3.81
2023-02-02T09:51:41.911Z,3.62
2023-02-02T09:56:51.296Z,3.55
2023-02-02T10:01:58.760Z,3.62
2023-02-02T10:07:09.999Z,3.70
2023-02-02T10:12:43.941Z,3.81
2023-02-02T10:17:56.447Z,3.86
2023-02-02T10:23:11.812Z,3.98
2023-02-02T10:28:18.963Z,4.14
2023-02-02T10:33:39.476Z,4.30
2023-02-02T10:38:53.177Z,4.53
2023-02-02T10:44:15.143Z,4.54
2023-02-02T10:49:35.400Z,4.40
2023-02-02T10:55:14.721Z,4.34
2023-02-02T11:00:31.543Z,4.49
2023-02-02T11:05:53.418Z,4.43
2023-02-02T11:11:21.213Z,4.33
2023-02-02T11:16:43.214Z,4.41
2023-02-02T11:21:50.567Z,4.53
2023-02-02T11:26:57.031Z,4.49
2023-02-02T11:32:33.237Z,4.37
2023-02-02T11:37:38.758Z,4.33
2023-02-02T11:42:48.065Z,4.17
2023-02-02T11:47:52.348Z,3.92
2023-02-02T11:52:55.738Z,3.84
2023-02-02T11:58:20.618Z,3.87
2023-02-02T12:03:47.821Z,3.86
2023-02-02T12:08:56.338Z,3.89
2023-02-02T12:14:29.135Z,3.82
2023-02-02T12:19:53.296Z,3.76
2023-02-02T12:25:11.436Z,3.63
2023-02-02T12:30:24.006Z,3.59
2023-02-02T12:36:04.791Z,3.51
2023-02-02T12:41:23.699Z,3.52
2023-02-02T12:46:53.906Z,3.51
2023-02-02T12:52:19.282Z,3.47
2023-02-02T12:57:41.100Z,3.45
2023-02-02T13:03:11.452Z,3.46
2023-02-02T13:08:31.353Z,3.40
2023-02-02T13:13:38.587Z,3.33
2023-02-02T13:18:52.514Z,3.26
2023-02-02T13:24:05.073Z,3.13
2023-02-02T13:29:52.481Z,2.89
2023-02-02T13:34:57.510Z,2.97
2023-02-02T13:40:37.923Z,3.25
2023-02-02T13:46:06.560Z,3.39
2023-02-02T13:51:38.420Z,3.49
2023-02-02T13:56:44.060Z,3.45
2023-02-02T14:01:53.975Z,3.48
2023-02-02T14:07:07.136Z,3.44
2023-02-02T14:12:11.764Z,3.05
2023-02-02T14:17:16.653Z,2.68
2023-02-02T14:22:39.769Z,2.34
2023-02-02T14:27:58.916Z,2.09
2023-02-02T14:33:20.761Z,1.93
2023-02-02T14:38:44.486Z,1.92
2023-02-02T14:43:54.433Z,1.92
2023-02-02T14:48:57.275Z,1.93
2023-02-02T14:54:05.567Z,1.93
2023-02-02T14:59:17.792Z,1.98
2023-02-02T15:04:21.589Z,1.99
2023-02-02T15:09:28.515Z,1.97
2023-02-02T15:14:38.759Z,1.91
2023-02-02T15:19:47.740Z,1.88
2023-02-02T15:24:53.099Z,1.87
2023-02-02T15:30:03.155Z,1.78
2023-02-02T15:35:14.695Z,1.71
2023-02-02T15:40:24.576Z,1.63
2023-02-02T15:45:31.202Z,1.49
2023-02-02T15:50:34.696Z,1.42
2023-02-02T15:55:37.549Z,1.37
2023-02-02T16:00:41.647Z,1.29
2023-02-02T16:05:50.046Z,1.26
2023-02-02T16:11:07.265Z,1.25
2023-02-02T16:16:37.617Z,1.15
2023-02-02T16:21:48.957Z,1.11
2023-02-02T16:26:56.297Z,1.11
2023-02-02T16:31:59.788Z,1.06
2023-02-02T16:37:06.759Z,0.98
2023-02-02T16:42:12.255Z,0.95
2023-02-02T16:47:38.700Z,0.95
2023-02-02T16:52:59.574Z,0.96
2023-02-02T16:58:07.778Z,0.94
2023-02-02T17:03:17.001Z,0.92
2023-02-02T17:08:38.077Z,0.92
2023-02-02T17:13:41.411Z,0.88
2023-02-02T17:18:44.298Z,0.84
2023-02-02T17:23:51.626Z,0.75
2023-02-02T17:29:00.253Z,0.69
2023-02-02T17:34:18.007Z,0.65
2023-02-02T17:39:20.890Z,0.59
2023-02-02T17:44:24.039Z,0.50
2023-02-02T17:49:27.918Z,0.37
2023-02-02T17:54:32.225Z,0.28
2023-02-02T17:59:35.206Z,0.24
2023-02-02T18:04:38.088Z,0.25
2023-02-02T18:09:41.100Z,0.21
2023-02-02T18:14:44.049Z,0.17
2023-02-02T18:19:51.655Z,0.12
2023-02-02T18:24:54.497Z,0.11
2023-02-02T18:29:58.033Z,0.13
2023-02-02T18:35:02.634Z,0.13
2023-02-02T18:40:08.364Z,0.19
2023-02-02T18:45:13.193Z,0.27
2023-02-02T18:50:18.630Z,0.38
2023-02-02T18:55:21.480Z,0.43
2023-02-02T19:00:24.418Z,0.41
2023-02-02T19:05:46.107Z,0.39
2023-02-02T19:10:57.716Z,0.35
2023-02-02T19:16:02.511Z,0.25
2023-02-02T19:21:11.678Z,0.19
2023-02-02T19:26:26.469Z,0.17
2023-02-02T19:31:29.790Z,0.22
2023-02-02T19:36:36.977Z,0.26
2023-02-02T19:41:42.605Z,0.24
2023-02-02T19:46:49.660Z,0.17
2023-02-02T19:51:55.673Z,0.14
2023-02-02T19:57:14.835Z,0.16
2023-02-02T20:02:39.781Z,0.16
2023-02-02T20:07:43.198Z,0.11
2023-02-02T20:12:51.116Z,0.13
2023-02-02T20:18:00.167Z,0.15
2023-02-02T20:23:17.769Z,0.19
2023-02-02T20:28:45.598Z,0.26
2023-02-02T20:33:55.058Z,0.26
2023-02-02T20:39:15.602Z,0.22
2023-02-02T20:44:18.469Z,0.15
2023-02-02T20:49:25.966Z,0.07
2023-02-02T20:54:29.243Z,-0.04
2023-02-02T20:59:33.229Z,-0.13
2023-02-02T21:04:36.685Z,-0.18
2023-02-02T21:09:42.742Z,-0.25
2023-02-02T21:14:47.465Z,-0.33
2023-02-02T21:19:50.511Z,-0.32
2023-02-02T21:24:53.665Z,-0.31
2023-02-02T21:29:56.821Z,-0.28
2023-02-02T21:35:00.993Z,-0.36
2023-02-02T21:40:13.879Z,-0.45
2023-02-02T21:45:20.211Z,-0.47
2023-02-02T21:50:33.920Z,-0.50
2023-02-02T21:55:38.290Z,-0.58
2023-02-02T22:00:42.496Z,-0.62
2023-02-02T22:05:45.280Z,-0.67
2023-02-02T22:10:49.223Z,-0.71
2023-02-02T22:15:54.043Z,-0.74
2023-02-02T22:20:57.018Z,-0.77
2023-02-02T22:26:01.575Z,-0.82
2023-02-02T22:31:05.873Z,-0.82
2023-02-02T22:36:09.166Z,-0.82
2023-02-02T22:41:12.084Z,-0.97
2023-02-02T22:46:15.610Z,-1.14
2023-02-02T22:51:20.467Z,-1.20
2023-02-02T22:56:23.306Z,-1.22
2023-02-02T23:01:26.097Z,-1.24
2023-02-02T23:06:28.994Z,-1.27
2023-02-02T23:11:31.798Z,-1.34
2023-02-02T23:16:35.048Z,-1.46
2023-02-02T23:21:37.912Z,-1.55
2023-02-02T23:26:40.832Z,-1.63
2023-02-02T23:31:43.843Z,-1.74
2023-02-02T23:36:46.712Z,-1.86
2023-02-02T23:41:49.515Z,-1.93
2023-02-02T23:46:53.344Z,-2.00
2023-02-02T23:51:56.276Z,-2.10
2023-02-02T23:56:59.345Z,-2.18
